createdAt,value
2023-04-24T00:01:25.346Z,23.20
2023-04-24T00:03:54.517Z,22.30
2023-04-24T00:06:24.966Z,21.83
2023-04-24T00:08:53.962Z,29.10
2023-04-24T00:11:23.001Z,27.35
2023-04-24T00:13:52.051Z,21.63
2023-04-24T00:16:21.173Z,25.75
2023-04-24T00:18:50.276Z,23.67
2023-04-24T00:21:19.334Z,24.60
2023-04-24T00:23:49.777Z,19.13
2023-04-24T00:26:18.781Z,20.90
2023-04-24T00:28:47.798Z,21.20
2023-04-24T00:31:16.873Z,20.52
2023-04-24T00:33:45.960Z,21.90
2023-04-24T00:36:14.971Z,23.77
2023-04-24T00:38:44.005Z,18.55
2023-04-24T00:41:14.588Z,21.27
2023-04-24T00:43:43.633Z,22.02
2023-04-24T00:46:13.064Z,19.58
2023-04-24T00:48:42.262Z,18.98
2023-04-24T00:51:11.577Z,19.33
2023-04-24T00:53:40.659Z,20.45
2023-04-24T00:56:09.812Z,18.35
2023-04-24T00:58:40.954Z,17.83
2023-04-24T01:01:10.852Z,19.13
2023-04-24T01:03:40.614Z,19.15
2023-04-24T01:06:11.631Z,18.77
2023-04-24T01:08:42.096Z,21.25
2023-04-24T01:11:11.130Z,19.20
2023-04-24T01:13:42.593Z,18.15
2023-04-24T01:16:13.242Z,18.75
2023-04-24T01:18:42.567Z,16.83
2023-04-24T01:21:13.530Z,21.67
2023-04-24T01:23:44.016Z,17.83
2023-04-24T01:26:13.243Z,18.63
2023-04-24T01:28:42.613Z,21.45
2023-04-24T01:31:11.761Z,21.67
2023-04-24T01:33:40.916Z,22.15
2023-04-24T01:36:12.771Z,21.05
2023-04-24T01:38:43.295Z,22.02
2023-04-24T01:41:12.704Z,23.45
2023-04-24T01:43:42.218Z,23.05
2023-04-24T01:46:11.357Z,24.73
2023-04-24T01:48:40.409Z,26.60
2023-04-24T01:51:09.568Z,23.60
2023-04-24T01:53:39.912Z,24.80
2023-04-24T01:56:10.974Z,24.00
2023-04-24T01:58:40.085Z,24.35
2023-04-24T02:01:09.383Z,29.10
2023-04-24T02:03:38.529Z,28.00
2023-04-24T02:06:08.115Z,28.20
2023-04-24T02:08:37.096Z,28.08
2023-04-24T02:11:06.980Z,28.55
2023-04-24T02:13:37.479Z,23.30
2023-04-24T02:16:06.786Z,16.40
2023-04-24T02:18:36.264Z,12.82
2023-04-24T02:21:05.515Z,8.85
2023-04-24T02:23:34.561Z,12.38
2023-04-24T02:26:03.626Z,10.90
2023-04-24T02:28:32.666Z,14.13
2023-04-24T02:31:03.197Z,8.48
2023-04-24T02:33:32.230Z,10.50
2023-04-24T02:36:01.704Z,8.18
2023-04-24T02:38:31.050Z,7.75
2023-04-24T02:41:01.757Z,8.35
2023-04-24T02:43:30.804Z,6.72
2023-04-24T02:45:59.871Z,8.20
2023-04-24T02:48:30.689Z,6.72
2023-04-24T02:50:59.795Z,5.93
2023-04-24T02:53:30.900Z,9.52
2023-04-24T02:55:59.932Z,12.40
2023-04-24T02:58:29.003Z,6.70
2023-04-24T03:00:58.056Z,5.05
2023-04-24T03:03:27.224Z,9.40
2023-04-24T03:05:58.099Z,9.60
2023-04-24T03:08:27.126Z,6.03
2023-04-24T03:10:56.136Z,7.30
2023-04-24T03:13:25.161Z,9.48
2023-04-24T03:15:55.154Z,5.85
2023-04-24T03:18:24.300Z,5.63
2023-04-24T03:20:55.159Z,8.57
2023-04-24T03:23:25.680Z,7.43
2023-04-24T03:25:55.852Z,8.27
2023-04-24T03:28:26.116Z,7.03
2023-04-24T03:31:01.010Z,13.05
2023-04-24T03:33:34.489Z,13.13
2023-04-24T03:36:04.481Z,8.27
2023-04-24T03:38:42.845Z,10.05
2023-04-24T03:41:32.632Z,7.63
2023-04-24T03:44:24.213Z,6.93
2023-04-24T03:46:53.630Z,6.95
2023-04-24T03:49:24.619Z,6.65
2023-04-24T03:51:53.785Z,6.20
2023-04-24T03:54:30.319Z,7.30
2023-04-24T03:56:59.590Z,8.35
2023-04-24T03:59:30.390Z,8.07
2023-04-24T04:02:16.950Z,16.40
2023-04-24T04:04:46.783Z,10.45
2023-04-24T04:07:16.053Z,8.45
2023-04-24T04:09:46.439Z,9.80
2023-04-24T04:12:15.577Z,11.27
2023-04-24T04:14:44.604Z,6.88
2023-04-24T04:17:13.713Z,14.55
2023-04-24T04:19:43.296Z,10.68
2023-04-24T04:22:12.604Z,13.18
2023-04-24T04:24:47.353Z,10.60
2023-04-24T04:27:17.614Z,12.02
2023-04-24T04:30:02.444Z,10.82
2023-04-24T04:32:34.230Z,8.90
2023-04-24T04:35:04.648Z,11.00
2023-04-24T04:37:35.680Z,12.40
2023-04-24T04:42:54.050Z,16.05
2023-04-24T04:45:25.403Z,17.80
2023-04-24T04:48:26.650Z,16.02
2023-04-24T04:50:55.963Z,15.18
2023-04-24T04:53:25.627Z,14.90
2023-04-24T04:55:56.240Z,18.38
2023-04-24T04:58:30.008Z,11.63
2023-04-24T05:01:01.982Z,14.38
2023-04-24T05:03:35.641Z,9.77
2023-04-24T05:06:09.146Z,12.93
2023-04-24T05:08:40.849Z,14.30
2023-04-24T05:11:16.147Z,13.93
2023-04-24T05:13:45.196Z,12.52
2023-04-24T05:16:25.493Z,12.48
2023-04-24T05:18:56.549Z,12.43
2023-04-24T05:21:31.906Z,16.13
2023-04-24T05:24:00.957Z,15.85
2023-04-24T05:27:00.780Z,24.95
2023-04-24T05:29:38.155Z,20.10
2023-04-24T05:32:08.347Z,18.58
2023-04-24T05:34:37.850Z,15.57
2023-04-24T05:37:09.338Z,16.42
2023-04-24T05:39:38.923Z,18.10
2023-04-24T05:42:09.509Z,14.32
2023-04-24T05:44:38.551Z,10.55
2023-04-24T05:47:07.596Z,13.73
2023-04-24T05:49:36.638Z,13.40
2023-04-24T05:52:07.534Z,13.68
2023-04-24T05:54:36.656Z,15.27
2023-04-24T05:57:08.700Z,15.23
2023-04-24T05:59:52.825Z,17.85
2023-04-24T06:02:23.974Z,15.05
2023-04-24T06:04:53.922Z,16.30
2023-04-24T06:07:23.153Z,20.25
2023-04-24T06:09:52.251Z,40.58
2023-04-24T06:12:21.263Z,15.98
2023-04-24T06:15:01.311Z,12.85
2023-04-24T06:17:52.053Z,13.77
2023-04-24T06:20:22.081Z,16.25
2023-04-24T06:22:51.176Z,30.00
2023-04-24T06:25:20.936Z,13.60
2023-04-24T06:27:50.145Z,16.38
2023-04-24T06:30:20.601Z,16.35
2023-04-24T06:32:49.642Z,14.13
2023-04-24T06:35:18.894Z,13.10
2023-04-24T06:37:48.611Z,11.52
2023-04-24T06:40:19.550Z,14.07
2023-04-24T06:42:48.673Z,9.25
2023-04-24T06:45:17.804Z,11.65
2023-04-24T06:47:49.506Z,10.47
2023-04-24T06:50:18.672Z,13.00
2023-04-24T06:52:47.963Z,16.20
2023-04-24T06:55:17.689Z,12.77
2023-04-24T06:57:46.946Z,20.15
2023-04-24T07:00:17.162Z,14.90
2023-04-24T07:02:46.235Z,9.07
2023-04-24T07:05:17.020Z,16.98
2023-04-24T07:07:46.052Z,14.25
2023-04-24T07:10:15.500Z,9.73
2023-04-24T07:12:44.486Z,9.15
2023-04-24T07:15:13.583Z,11.90
2023-04-24T07:17:44.617Z,9.57
2023-04-24T07:20:15.515Z,9.25
2023-04-24T07:22:45.928Z,8.93
2023-04-24T07:25:14.971Z,8.80
2023-04-24T07:27:44.029Z,11.20
2023-04-24T07:30:13.898Z,7.97
2023-04-24T07:32:43.007Z,11.73
2023-04-24T07:35:12.273Z,9.00
2023-04-24T07:37:41.384Z,12.98
2023-04-24T07:40:12.830Z,12.65
2023-04-24T07:42:42.578Z,6.35
2023-04-24T07:45:11.802Z,6.80
2023-04-24T07:47:41.072Z,9.35
2023-04-24T07:50:10.616Z,11.10
2023-04-24T07:52:39.711Z,10.60
2023-04-24T07:55:09.444Z,9.65
2023-04-24T07:57:39.859Z,10.73
2023-04-24T08:00:10.372Z,9.15
2023-04-24T08:02:42.667Z,14.65
2023-04-24T08:05:12.429Z,14.38
2023-04-24T08:07:43.683Z,7.28
2023-04-24T08:10:13.278Z,16.63
2023-04-24T08:12:43.867Z,20.85
2023-04-24T08:15:13.104Z,11.70
2023-04-24T08:17:42.170Z,9.43
2023-04-24T08:20:14.707Z,13.60
2023-04-24T08:22:44.844Z,7.95
2023-04-24T08:25:13.901Z,9.63
2023-04-24T08:27:44.692Z,16.33
2023-04-24T08:30:14.222Z,15.68
2023-04-24T08:32:43.518Z,16.05
2023-04-24T08:35:12.682Z,14.45
2023-04-24T08:37:41.715Z,16.80
2023-04-24T08:40:15.948Z,11.73
2023-04-24T08:42:46.872Z,13.65
2023-04-24T08:45:16.026Z,16.35
2023-04-24T08:47:46.441Z,16.08
2023-04-24T08:50:16.375Z,11.88
2023-04-24T08:52:45.618Z,15.43
2023-04-24T08:55:15.931Z,11.73
2023-04-24T08:57:49.295Z,13.93
2023-04-24T09:00:19.568Z,15.50
2023-04-24T09:02:50.998Z,11.43
2023-04-24T09:05:20.869Z,11.00
2023-04-24T09:07:55.959Z,13.48
2023-04-24T09:10:26.906Z,11.75
2023-04-24T09:12:59.228Z,13.60
2023-04-24T09:15:28.508Z,14.75
2023-04-24T09:17:58.546Z,16.25
2023-04-24T09:20:27.636Z,17.95
2023-04-24T09:22:58.798Z,10.23
2023-04-24T09:25:34.361Z,9.40
2023-04-24T09:28:07.597Z,8.32
2023-04-24T09:30:36.659Z,8.63
2023-04-24T09:33:16.315Z,12.55
2023-04-24T09:35:50.628Z,8.57
2023-04-24T09:38:19.697Z,7.25
2023-04-24T09:40:48.769Z,10.82
2023-04-24T09:43:19.516Z,10.27
2023-04-24T09:45:48.639Z,7.30
2023-04-24T09:48:17.826Z,11.18
2023-04-24T09:50:49.078Z,10.23
2023-04-24T09:55:49.919Z,13.25
2023-04-24T09:58:20.837Z,11.75
2023-04-24T10:00:49.902Z,9.90
2023-04-24T10:03:20.743Z,14.05
2023-04-24T10:05:50.152Z,9.55
2023-04-24T10:08:19.404Z,8.55
2023-04-24T10:10:48.710Z,7.78
2023-04-24T10:13:19.260Z,6.20
2023-04-24T10:15:50.277Z,9.00
2023-04-24T10:18:20.017Z,12.13
2023-04-24T10:20:49.918Z,6.93
2023-04-24T10:23:20.437Z,11.30
2023-04-24T10:25:50.746Z,9.30
2023-04-24T10:28:22.773Z,10.97
2023-04-24T10:30:53.232Z,8.02
2023-04-24T10:33:23.395Z,7.40
2023-04-24T10:35:54.030Z,10.55
2023-04-24T10:38:27.097Z,9.82
2023-04-24T10:41:08.990Z,7.50
2023-04-24T10:43:41.723Z,8.50
2023-04-24T10:46:12.440Z,7.57
2023-04-24T10:48:45.438Z,13.60
2023-04-24T10:51:16.139Z,10.10
2023-04-24T10:53:45.329Z,13.35
2023-04-24T10:56:14.636Z,8.18
2023-04-24T10:58:53.468Z,9.88
2023-04-24T11:01:27.554Z,7.72
2023-04-24T11:04:01.742Z,12.65
2023-04-24T11:06:32.909Z,10.68
2023-04-24T11:09:07.237Z,8.35
2023-04-24T11:11:38.012Z,8.60
2023-04-24T11:14:12.148Z,10.13
2023-04-24T11:16:56.193Z,9.55
2023-04-24T11:19:26.844Z,11.77
2023-04-24T11:22:01.455Z,9.85
2023-04-24T11:24:32.995Z,12.38
2023-04-24T11:27:09.020Z,12.75
2023-04-24T11:29:45.053Z,13.48
2023-04-24T11:32:28.913Z,11.95
2023-04-24T11:34:59.056Z,10.68
2023-04-24T11:37:30.184Z,13.30
2023-04-24T11:40:00.981Z,7.72
2023-04-24T11:42:35.518Z,17.05
2023-04-24T11:45:10.648Z,9.05
2023-04-24T11:47:40.423Z,9.27
2023-04-24T11:50:11.951Z,9.35
2023-04-24T11:52:42.341Z,13.05
2023-04-24T11:55:27.049Z,8.77
2023-04-24T11:57:58.649Z,10.65
2023-04-24T12:00:31.073Z,10.50
2023-04-24T12:03:08.389Z,12.05
2023-04-24T12:05:38.125Z,16.15
2023-04-24T12:08:08.871Z,14.02
2023-04-24T12:10:38.474Z,16.15
2023-04-24T12:13:07.693Z,14.15
2023-04-24T12:15:41.991Z,13.02
2023-04-24T12:18:14.845Z,13.93
2023-04-24T12:20:43.894Z,10.90
2023-04-24T12:23:12.916Z,11.65
2023-04-24T12:25:42.813Z,10.27
2023-04-24T12:28:13.487Z,16.13
2023-04-24T12:30:46.315Z,11.20
2023-04-24T12:33:19.361Z,9.30
2023-04-24T12:35:48.611Z,11.05
2023-04-24T12:38:19.002Z,10.43
2023-04-24T12:40:48.007Z,15.27
2023-04-24T12:43:18.344Z,12.95
2023-04-24T12:45:50.047Z,10.65
2023-04-24T12:48:19.083Z,11.70
2023-04-24T12:50:48.140Z,6.93
2023-04-24T12:53:17.752Z,7.97
2023-04-24T12:55:48.025Z,11.20
2023-04-24T12:58:17.493Z,8.48
2023-04-24T13:00:48.672Z,9.02
2023-04-24T13:03:17.862Z,11.13
2023-04-24T13:05:47.124Z,9.27
2023-04-24T13:08:16.144Z,11.27
2023-04-24T13:10:45.233Z,13.55
2023-04-24T13:13:14.344Z,10.93
2023-04-24T13:15:43.320Z,10.32
2023-04-24T13:18:13.820Z,9.05
2023-04-24T13:20:43.240Z,8.13
2023-04-24T13:23:12.822Z,6.88
2023-04-24T13:25:41.859Z,8.98
2023-04-24T13:28:13.282Z,10.90
2023-04-24T13:30:42.325Z,11.90
2023-04-24T13:33:11.439Z,7.85
2023-04-24T13:35:41.946Z,7.78
2023-04-24T13:38:10.959Z,15.03
2023-04-24T13:40:40.057Z,12.43
2023-04-24T13:43:09.223Z,14.25
2023-04-24T13:45:38.887Z,7.32
2023-04-24T13:48:09.934Z,12.10
2023-04-24T13:50:39.086Z,11.10
2023-04-24T13:53:09.559Z,13.57
2023-04-24T13:55:40.253Z,11.37
2023-04-24T13:58:09.331Z,9.00
2023-04-24T14:00:38.549Z,7.13
2023-04-24T14:03:07.847Z,8.65
2023-04-24T14:05:38.826Z,8.13
2023-04-24T14:08:09.456Z,5.70
2023-04-24T14:10:38.572Z,10.57
2023-04-24T14:13:08.025Z,9.73
2023-04-24T14:15:38.360Z,11.43
2023-04-24T14:18:07.799Z,7.90
2023-04-24T14:20:36.894Z,13.45
2023-04-24T14:23:06.258Z,12.80
2023-04-24T14:25:36.726Z,14.20
2023-04-24T14:28:05.902Z,8.67
2023-04-24T14:30:34.910Z,9.85
2023-04-24T14:33:03.952Z,11.18
2023-04-24T14:35:35.191Z,7.32
2023-04-24T14:38:04.253Z,11.02
2023-04-24T14:43:07.444Z,12.57
2023-04-24T14:45:36.565Z,6.20
2023-04-24T14:48:06.108Z,13.38
2023-04-24T14:50:35.385Z,10.43
2023-04-24T14:53:05.168Z,8.60
2023-04-24T14:55:35.557Z,9.77
2023-04-24T14:58:06.568Z,12.43
2023-04-24T15:00:35.702Z,9.00
2023-04-24T15:03:05.053Z,9.60
2023-04-24T15:05:34.759Z,10.00
2023-04-24T15:08:04.116Z,7.10
2023-04-24T15:10:33.185Z,11.68
2023-04-24T15:13:02.285Z,9.77
2023-04-24T15:15:32.976Z,10.60
2023-04-24T15:18:03.151Z,11.30
2023-04-24T15:20:32.284Z,7.75
2023-04-24T15:23:03.268Z,13.15
2023-04-24T15:25:32.608Z,9.25
2023-04-24T15:28:02.276Z,10.05
2023-04-24T15:30:33.115Z,8.38
2023-04-24T15:33:03.148Z,13.05
2023-04-24T15:35:32.697Z,6.18
2023-04-24T15:38:01.814Z,11.10
2023-04-24T15:40:30.982Z,7.40
2023-04-24T15:43:00.230Z,11.55
2023-04-24T15:45:29.553Z,7.53
2023-04-24T15:48:00.081Z,5.45
2023-04-24T15:50:29.364Z,8.30
2023-04-24T15:52:58.488Z,7.38
2023-04-24T15:55:27.636Z,9.27
2023-04-24T15:57:56.849Z,10.63
2023-04-24T16:00:26.064Z,7.45
2023-04-24T16:02:55.268Z,7.15
2023-04-24T16:05:25.765Z,9.38
2023-04-24T16:07:54.818Z,6.67
2023-04-24T16:10:23.842Z,7.10
2023-04-24T16:12:54.523Z,9.55
2023-04-24T16:15:23.550Z,7.35
2023-04-24T16:17:52.732Z,8.75
2023-04-24T16:20:21.919Z,6.65
2023-04-24T16:22:52.323Z,7.57
2023-04-24T16:25:21.539Z,8.47
2023-04-24T16:27:52.706Z,7.82
2023-04-24T16:30:21.810Z,6.72
2023-04-24T16:32:51.115Z,9.82
2023-04-24T16:35:20.294Z,7.88
2023-04-24T16:37:49.392Z,8.65
2023-04-24T16:40:20.851Z,7.68
2023-04-24T16:42:50.448Z,6.13
2023-04-24T16:45:19.674Z,6.90
2023-04-24T16:47:48.997Z,7.43
2023-04-24T16:50:18.090Z,7.07
2023-04-24T16:52:47.084Z,12.20
2023-04-24T16:55:16.225Z,15.00
2023-04-24T16:57:46.678Z,101.07
2023-04-24T17:00:16.702Z,19.87
2023-04-24T17:02:48.673Z,13.27
2023-04-24T17:05:19.398Z,12.65
2023-04-24T17:07:48.428Z,10.20
2023-04-24T17:10:17.620Z,7.38
2023-04-24T17:12:48.035Z,11.90
2023-04-24T17:15:17.228Z,7.40
2023-04-24T17:17:46.485Z,9.73
2023-04-24T17:20:22.886Z,7.95
2023-04-24T17:22:53.189Z,8.82
2023-04-24T17:25:22.443Z,6.30
2023-04-24T17:27:53.003Z,7.32
2023-04-24T17:30:22.158Z,8.07
2023-04-24T17:32:51.219Z,12.43
2023-04-24T17:35:22.178Z,6.72
2023-04-24T17:37:51.987Z,10.43
2023-04-24T17:40:21.082Z,9.23
2023-04-24T17:42:50.092Z,12.82
2023-04-24T17:45:20.544Z,11.52
2023-04-24T17:47:51.640Z,17.03
2023-04-24T17:50:20.968Z,31.00
2023-04-24T17:52:50.043Z,4.43
2023-04-24T17:55:19.326Z,7.47
2023-04-24T17:57:48.821Z,33.17
2023-04-24T18:00:18.564Z,5.20
2023-04-24T18:02:49.844Z,63.10
2023-04-24T18:05:19.213Z,5.00
2023-04-24T18:07:48.297Z,5.70
2023-04-24T18:10:17.522Z,7.40
2023-04-24T18:12:46.597Z,7.80
2023-04-24T18:15:16.185Z,9.98
2023-04-24T18:17:45.505Z,7.68
2023-04-24T18:20:17.360Z,5.65
2023-04-24T18:22:47.057Z,7.00
2023-04-24T18:25:16.409Z,10.63
2023-04-24T18:27:45.526Z,7.25
2023-04-24T18:30:15.117Z,7.45
2023-04-24T18:32:44.333Z,9.68
2023-04-24T18:35:13.477Z,10.02
2023-04-24T18:37:45.469Z,7.82
2023-04-24T18:40:15.458Z,11.23
2023-04-24T18:42:45.012Z,7.10
2023-04-24T18:45:15.340Z,8.93
2023-04-24T18:47:44.672Z,13.77
2023-04-24T18:50:14.766Z,39.80
2023-04-24T18:52:45.206Z,16.58
2023-04-24T18:55:14.241Z,43.83
2023-04-24T18:57:43.268Z,25.65
2023-04-24T19:00:13.516Z,15.15
2023-04-24T19:02:42.650Z,48.58
2023-04-24T19:05:12.140Z,24.95
2023-04-24T19:07:42.396Z,10.13
2023-04-24T19:10:13.478Z,11.20
2023-04-24T19:12:42.519Z,9.82
2023-04-24T19:15:12.989Z,13.30
2023-04-24T19:17:42.077Z,9.02
2023-04-24T19:20:11.895Z,9.48
2023-04-24T19:22:41.083Z,9.98
2023-04-24T19:25:10.713Z,7.70
2023-04-24T19:27:41.472Z,10.45
2023-04-24T19:30:11.535Z,12.57
2023-04-24T19:32:40.626Z,8.30
2023-04-24T19:35:10.266Z,12.20
2023-04-24T19:37:39.814Z,12.10
2023-04-24T19:40:09.945Z,9.02
2023-04-24T19:42:44.172Z,13.13
2023-04-24T19:45:14.675Z,14.18
2023-04-24T19:47:43.856Z,12.30
2023-04-24T19:50:12.990Z,12.13
2023-04-24T19:52:42.163Z,22.02
2023-04-24T19:55:11.695Z,27.13
2023-04-24T19:57:42.625Z,36.55
2023-04-24T20:00:13.620Z,27.27
2023-04-24T20:02:42.852Z,25.60
2023-04-24T20:05:12.115Z,24.35
2023-04-24T20:07:41.293Z,24.17
2023-04-24T20:10:11.716Z,14.82
2023-04-24T20:12:42.377Z,16.93
2023-04-24T20:15:13.216Z,15.07
2023-04-24T20:17:42.397Z,18.83
2023-04-24T20:20:12.542Z,21.02
2023-04-24T20:22:41.978Z,19.20
2023-04-24T20:25:13.159Z,19.20
2023-04-24T20:27:43.895Z,15.30
2023-04-24T20:30:13.996Z,13.02
2023-04-24T20:32:43.677Z,13.20
2023-04-24T20:35:13.164Z,11.00
2023-04-24T20:37:42.491Z,8.07
2023-04-24T20:40:14.162Z,10.75
2023-04-24T20:42:46.383Z,9.05
2023-04-24T20:45:15.857Z,14.55
2023-04-24T20:47:44.978Z,15.82
2023-04-24T20:50:14.097Z,10.77
2023-04-24T20:52:43.099Z,11.85
2023-04-24T20:55:12.235Z,18.60
2023-04-24T20:57:41.351Z,9.95
2023-04-24T21:00:13.178Z,8.98
2023-04-24T21:02:42.335Z,10.25
2023-04-24T21:05:11.811Z,13.40
2023-04-24T21:07:40.874Z,10.65
2023-04-24T21:10:11.018Z,10.05
2023-04-24T21:12:40.000Z,11.30
2023-04-24T21:15:09.786Z,13.95
2023-04-24T21:17:40.666Z,11.73
2023-04-24T21:20:10.838Z,10.20
2023-04-24T21:22:39.891Z,12.77
2023-04-24T21:25:09.859Z,11.55
2023-04-24T21:27:39.573Z,9.63
2023-04-24T21:30:09.663Z,15.82
2023-04-24T21:32:40.661Z,30.20
2023-04-24T21:35:10.597Z,49.55
2023-04-24T21:37:39.964Z,49.35
2023-04-24T21:40:13.519Z,26.45
2023-04-24T21:42:42.794Z,14.30
2023-04-24T21:45:12.890Z,131.95
2023-04-24T21:47:43.278Z,133.07
2023-04-24T21:50:12.949Z,107.17
2023-04-24T21:52:42.031Z,80.57
2023-04-24T21:55:11.238Z,34.58
2023-04-24T21:57:40.702Z,17.55
2023-04-24T22:00:11.726Z,24.15
2023-04-24T22:02:43.237Z,16.77
2023-04-24T22:05:15.880Z,17.45
2023-04-24T22:07:47.848Z,21.58
2023-04-24T22:10:19.192Z,21.55
2023-04-24T22:12:48.260Z,21.38
2023-04-24T22:15:17.285Z,18.75
2023-04-24T22:17:49.689Z,18.35
2023-04-24T22:20:18.864Z,16.23
2023-04-24T22:22:48.641Z,16.75
2023-04-24T22:25:19.713Z,16.40
2023-04-24T22:27:48.731Z,17.23
2023-04-24T22:30:18.187Z,14.38
2023-04-24T22:32:49.387Z,19.77
2023-04-24T22:37:50.594Z,13.80
2023-04-24T22:40:19.739Z,14.55
2023-04-24T22:42:48.787Z,14.93
2023-04-24T22:45:18.073Z,15.73
2023-04-24T22:47:48.510Z,16.83
2023-04-24T22:50:17.740Z,18.73
2023-04-24T22:52:47.660Z,23.75
2023-04-24T22:55:16.673Z,19.40
2023-04-24T22:57:45.766Z,17.90
2023-04-24T23:00:16.061Z,22.90
2023-04-24T23:02:45.230Z,17.23
2023-04-24T23:05:15.881Z,15.55
2023-04-24T23:07:44.925Z,13.98
2023-04-24T23:10:13.922Z,17.95
2023-04-24T23:12:43.785Z,13.35
2023-04-24T23:15:13.220Z,13.10
2023-04-24T23:17:42.292Z,17.80
2023-04-24T23:20:14.160Z,14.25
2023-04-24T23:22:44.583Z,13.95
2023-04-24T23:25:13.548Z,12.57
2023-04-24T23:27:42.718Z,10.93
2023-04-24T23:30:12.289Z,12.10
2023-04-24T23:32:41.331Z,12.18
2023-04-24T23:35:11.584Z,14.38
2023-04-24T23:37:40.675Z,10.38
2023-04-24T23:40:13.027Z,12.27
2023-04-24T23:42:42.039Z,12.85
2023-04-24T23:45:12.217Z,11.00
2023-04-24T23:47:41.694Z,18.85
2023-04-24T23:50:11.963Z,16.40
2023-04-24T23:52:41.182Z,14.13
2023-04-24T23:55:12.036Z,19.23
2023-04-24T23:57:41.101Z,17.85
